sensor_id;sensor_type;location;lat;lon;timestamp;P1;P2;P0
28026;PMS5003;15344;52.342;-1.290;2024-03-06T00:00:28;27;20;
28026;PMS5003;15344;52.342;-1.290;2024-03-06T00:02:53;38;23;
28026;PMS5003;15344;52.342;-1.290;2024-03-06T00:05:19;35;22;
28026;PMS5003;15344;52.342;-1.290;2024-03-06T00:07:44;27;21;
28026;PMS5003;15344;52.342;-1.290;2024-03-06T00:10:09;37;23;
28026;PMS5003;15344;52.342;-1.290;2024-03-06T00:12:34;39;23;
28026;PMS5003;15344;52.342;-1.290;2024-03-06T00:14:59;27;22;
28026;PMS5003;15344;52.342;-1.290;2024-03-06T00:17:25;30;25;
28026;PMS5003;15344;52.342;-1.290;2024-03-06T00:19:51;34;23;
28026;PMS5003;15344;52.342;-1.290;2024-03-06T00:22:16;25;25;
28026;PMS5003;15344;52.342;-1.290;2024-03-06T00:24:41;27;22;
28026;PMS5003;15344;52.342;-1.290;2024-03-06T00:27:07;33;26;
28026;PMS5003;15344;52.342;-1.290;2024-03-06T00:29:32;28;21;
28026;PMS5003;15344;52.342;-1.290;2024-03-06T00:31:58;33;24;
28026;PMS5003;15344;52.342;-1.290;2024-03-06T00:34:23;29;25;
28026;PMS5003;15344;52.342;-1.290;2024-03-06T00:36:49;32;20;
28026;PMS5003;15344;52.342;-1.290;2024-03-06T00:39:15;30;26;
28026;PMS5003;15344;52.342;-1.290;2024-03-06T00:41:41;21;21;
28026;PMS5003;15344;52.342;-1.290;2024-03-06T00:44:06;23;20;
28026;PMS5003;15344;52.342;-1.290;2024-03-06T00:46:32;33;22;
28026;PMS5003;15344;52.342;-1.290;2024-03-06T00:48:58;28;23;
28026;PMS5003;15344;52.342;-1.290;2024-03-06T00:51:23;32;25;
28026;PMS5003;15344;52.342;-1.290;2024-03-06T00:53:48;23;20;
28026;PMS5003;15344;52.342;-1.290;2024-03-06T00:56:13;34;23;
28026;PMS5003;15344;52.342;-1.290;2024-03-06T00:58:38;33;24;
28026;PMS5003;15344;52.342;-1.290;2024-03-06T01:01:03;30;24;
28026;PMS5003;15344;52.342;-1.290;2024-03-06T01:03:29;32;22;
28026;PMS5003;15344;52.342;-1.290;2024-03-06T01:05:55;36;26;
28026;PMS5003;15344;52.342;-1.290;2024-03-06T01:08:21;26;21;
28026;PMS5003;15344;52.342;-1.290;2024-03-06T01:10:46;39;25;
28026;PMS5003;15344;52.342;-1.290;2024-03-06T01:13:12;32;24;
28026;PMS5003;15344;52.342;-1.290;2024-03-06T01:15:37;41;29;
28026;PMS5003;15344;52.342;-1.290;2024-03-06T01:18:03;35;22;
28026;PMS5003;15344;52.342;-1.290;2024-03-06T01:20:28;31;24;
28026;PMS5003;15344;52.342;-1.290;2024-03-06T01:22:54;31;22;
28026;PMS5003;15344;52.342;-1.290;2024-03-06T01:25:19;26;23;
28026;PMS5003;15344;52.342;-1.290;2024-03-06T01:27:45;41;26;
28026;PMS5003;15344;52.342;-1.290;2024-03-06T01:30:11;38;23;
28026;PMS5003;15344;52.342;-1.290;2024-03-06T01:32:36;38;29;
28026;PMS5003;15344;52.342;-1.290;2024-03-06T01:35:02;39;24;
28026;PMS5003;15344;52.342;-1.290;2024-03-06T01:37:27;36;25;
28026;PMS5003;15344;52.342;-1.290;2024-03-06T01:39:53;43;26;
28026;PMS5003;15344;52.342;-1.290;2024-03-06T01:42:19;34;26;
28026;PMS5003;15344;52.342;-1.290;2024-03-06T01:44:44;34;29;
28026;PMS5003;15344;52.342;-1.290;2024-03-06T01:47:09;24;23;
28026;PMS5003;15344;52.342;-1.290;2024-03-06T01:49:35;32;23;
28026;PMS5003;15344;52.342;-1.290;2024-03-06T01:52:00;28;23;
28026;PMS5003;15344;52.342;-1.290;2024-03-06T01:54:26;35;28;
28026;PMS5003;15344;52.342;-1.290;2024-03-06T01:56:51;43;27;
28026;PMS5003;15344;52.342;-1.290;2024-03-06T01:59:17;35;27;
28026;PMS5003;15344;52.342;-1.290;2024-03-06T02:01:42;36;28;
28026;PMS5003;15344;52.342;-1.290;2024-03-06T02:04:07;32;27;
28026;PMS5003;15344;52.342;-1.290;2024-03-06T02:06:32;32;26;
28026;PMS5003;15344;52.342;-1.290;2024-03-06T02:08:57;41;27;
28026;PMS5003;15344;52.342;-1.290;2024-03-06T02:11:23;36;27;
28026;PMS5003;15344;52.342;-1.290;2024-03-06T02:13:49;30;28;
28026;PMS5003;15344;52.342;-1.290;2024-03-06T02:16:14;32;27;
28026;PMS5003;15344;52.342;-1.290;2024-03-06T02:21:05;46;28;
28026;PMS5003;15344;52.342;-1.290;2024-03-06T02:23:30;38;29;
28026;PMS5003;15344;52.342;-1.290;2024-03-06T02:25:56;33;27;
28026;PMS5003;15344;52.342;-1.290;2024-03-06T02:28:21;39;27;
28026;PMS5003;15344;52.342;-1.290;2024-03-06T02:30:49;36;27;
28026;PMS5003;15344;52.342;-1.290;2024-03-06T02:33:11;45;30;
28026;PMS5003;15344;52.342;-1.290;2024-03-06T02:35:37;44;31;
28026;PMS5003;15344;52.342;-1.290;2024-03-06T02:38:03;39;28;
28026;PMS5003;15344;52.342;-1.290;2024-03-06T02:40:28;43;30;
28026;PMS5003;15344;52.342;-1.290;2024-03-06T02:42:53;48;33;
28026;PMS5003;15344;52.342;-1.290;2024-03-06T02:45:19;50;36;
28026;PMS5003;15344;52.342;-1.290;2024-03-06T02:47:44;46;33;
28026;PMS5003;15344;52.342;-1.290;2024-03-06T02:50:10;42;31;
28026;PMS5003;15344;52.342;-1.290;2024-03-06T02:52:35;49;34;
28026;PMS5003;15344;52.342;-1.290;2024-03-06T02:55:01;42;32;
28026;PMS5003;15344;52.342;-1.290;2024-03-06T02:57:26;43;33;
28026;PMS5003;15344;52.342;-1.290;2024-03-06T02:59:52;39;30;
28026;PMS5003;15344;52.342;-1.290;2024-03-06T03:02:17;47;31;
28026;PMS5003;15344;52.342;-1.290;2024-03-06T03:04:42;55;34;
28026;PMS5003;15344;52.342;-1.290;2024-03-06T03:07:08;51;31;
28026;PMS5003;15344;52.342;-1.290;2024-03-06T03:09:33;58;37;
28026;PMS5003;15344;52.342;-1.290;2024-03-06T03:11:58;45;33;
28026;PMS5003;15344;52.342;-1.290;2024-03-06T03:14:24;49;34;
28026;PMS5003;15344;52.342;-1.290;2024-03-06T03:16:49;46;34;
28026;PMS5003;15344;52.342;-1.290;2024-03-06T03:19:15;43;32;
28026;PMS5003;15344;52.342;-1.290;2024-03-06T03:21:43;39;32;
28026;PMS5003;15344;52.342;-1.290;2024-03-06T03:24:05;46;29;
28026;PMS5003;15344;52.342;-1.290;2024-03-06T03:26:31;40;32;
28026;PMS5003;15344;52.342;-1.290;2024-03-06T03:28:56;38;31;
28026;PMS5003;15344;52.342;-1.290;2024-03-06T03:31:22;39;29;
28026;PMS5003;15344;52.342;-1.290;2024-03-06T03:33:48;40;30;
28026;PMS5003;15344;52.342;-1.290;2024-03-06T03:36:14;45;31;
28026;PMS5003;15344;52.342;-1.290;2024-03-06T03:38:39;40;33;
28026;PMS5003;15344;52.342;-1.290;2024-03-06T03:41:06;36;29;
28026;PMS5003;15344;52.342;-1.290;2024-03-06T03:43:30;34;28;
28026;PMS5003;15344;52.342;-1.290;2024-03-06T03:45:55;33;26;
28026;PMS5003;15344;52.342;-1.290;2024-03-06T03:48:21;41;30;
28026;PMS5003;15344;52.342;-1.290;2024-03-06T03:50:47;33;24;
28026;PMS5003;15344;52.342;-1.290;2024-03-06T03:53:12;36;26;
28026;PMS5003;15344;52.342;-1.290;2024-03-06T03:55:38;36;26;
28026;PMS5003;15344;52.342;-1.290;2024-03-06T03:58:03;41;28;
28026;PMS5003;15344;52.342;-1.290;2024-03-06T04:00:29;29;25;
28026;PMS5003;15344;52.342;-1.290;2024-03-06T04:02:54;34;24;
28026;PMS5003;15344;52.342;-1.290;2024-03-06T04:05:19;40;26;
28026;PMS5003;15344;52.342;-1.290;2024-03-06T04:07:44;31;25;
28026;PMS5003;15344;52.342;-1.290;2024-03-06T04:10:10;32;22;
28026;PMS5003;15344;52.342;-1.290;2024-03-06T04:12:35;35;23;
28026;PMS5003;15344;52.342;-1.290;2024-03-06T04:15:01;28;21;
28026;PMS5003;15344;52.342;-1.290;2024-03-06T04:17:26;24;23;
28026;PMS5003;15344;52.342;-1.290;2024-03-06T04:19:51;26;21;
28026;PMS5003;15344;52.342;-1.290;2024-03-06T04:22:18;28;23;
28026;PMS5003;15344;52.342;-1.290;2024-03-06T04:24:42;35;27;
28026;PMS5003;15344;52.342;-1.290;2024-03-06T04:27:07;32;25;
28026;PMS5003;15344;52.342;-1.290;2024-03-06T04:29:33;36;27;
28026;PMS5003;15344;52.342;-1.290;2024-03-06T04:31:58;24;19;
28026;PMS5003;15344;52.342;-1.290;2024-03-06T04:34:24;32;26;
28026;PMS5003;15344;52.342;-1.290;2024-03-06T04:36:49;26;23;
28026;PMS5003;15344;52.342;-1.290;2024-03-06T04:39:14;31;23;
28026;PMS5003;15344;52.342;-1.290;2024-03-06T04:41:39;33;25;
28026;PMS5003;15344;52.342;-1.290;2024-03-06T04:44:04;29;18;
28026;PMS5003;15344;52.342;-1.290;2024-03-06T04:46:30;25;16;
28026;PMS5003;15344;52.342;-1.290;2024-03-06T04:48:55;26;20;
28026;PMS5003;15344;52.342;-1.290;2024-03-06T04:51:20;31;21;
28026;PMS5003;15344;52.342;-1.290;2024-03-06T04:53:46;24;17;
28026;PMS5003;15344;52.342;-1.290;2024-03-06T04:56:11;15;15;
28026;PMS5003;15344;52.342;-1.290;2024-03-06T04:58:36;19;14;
28026;PMS5003;15344;52.342;-1.290;2024-03-06T05:01:01;18;14;
28026;PMS5003;15344;52.342;-1.290;2024-03-06T05:03:27;25;18;
28026;PMS5003;15344;52.342;-1.290;2024-03-06T05:05:52;25;16;
28026;PMS5003;15344;52.342;-1.290;2024-03-06T05:08:18;24;18;
28026;PMS5003;15344;52.342;-1.290;2024-03-06T05:10:43;21;16;
28026;PMS5003;15344;52.342;-1.290;2024-03-06T05:13:09;23;15;
28026;PMS5003;15344;52.342;-1.290;2024-03-06T05:15:34;22;13;
28026;PMS5003;15344;52.342;-1.290;2024-03-06T05:18:00;24;13;
28026;PMS5003;15344;52.342;-1.290;2024-03-06T05:20:25;21;14;
28026;PMS5003;15344;52.342;-1.290;2024-03-06T05:22:51;24;19;
28026;PMS5003;15344;52.342;-1.290;2024-03-06T05:25:16;30;16;
28026;PMS5003;15344;52.342;-1.290;2024-03-06T05:27:42;26;16;
28026;PMS5003;15344;52.342;-1.290;2024-03-06T05:30:07;28;18;
28026;PMS5003;15344;52.342;-1.290;2024-03-06T05:32:32;19;16;
28026;PMS5003;15344;52.342;-1.290;2024-03-06T05:34:58;23;18;
28026;PMS5003;15344;52.342;-1.290;2024-03-06T05:37:24;24;19;
28026;PMS5003;15344;52.342;-1.290;2024-03-06T05:39:49;21;16;
28026;PMS5003;15344;52.342;-1.290;2024-03-06T05:42:14;16;16;
28026;PMS5003;15344;52.342;-1.290;2024-03-06T05:44:40;17;16;
28026;PMS5003;15344;52.342;-1.290;2024-03-06T05:47:05;23;16;
28026;PMS5003;15344;52.342;-1.290;2024-03-06T05:49:31;27;19;
28026;PMS5003;15344;52.342;-1.290;2024-03-06T05:51:56;24;20;
28026;PMS5003;15344;52.342;-1.290;2024-03-06T05:54:22;24;14;
28026;PMS5003;15344;52.342;-1.290;2024-03-06T05:56:47;23;19;
28026;PMS5003;15344;52.342;-1.290;2024-03-06T05:59:12;21;18;
28026;PMS5003;15344;52.342;-1.290;2024-03-06T06:01:38;33;22;
28026;PMS5003;15344;52.342;-1.290;2024-03-06T06:04:03;35;25;
28026;PMS5003;15344;52.342;-1.290;2024-03-06T06:06:28;40;29;
28026;PMS5003;15344;52.342;-1.290;2024-03-06T06:08:53;33;28;
28026;PMS5003;15344;52.342;-1.290;2024-03-06T06:11:19;31;26;
28026;PMS5003;15344;52.342;-1.290;2024-03-06T06:13:44;35;25;
28026;PMS5003;15344;52.342;-1.290;2024-03-06T06:16:10;37;26;
28026;PMS5003;15344;52.342;-1.290;2024-03-06T06:18:35;35;24;
28026;PMS5003;15344;52.342;-1.290;2024-03-06T06:21:01;24;22;
28026;PMS5003;15344;52.342;-1.290;2024-03-06T06:23:26;24;21;
28026;PMS5003;15344;52.342;-1.290;2024-03-06T06:25:52;33;23;
28026;PMS5003;15344;52.342;-1.290;2024-03-06T06:28:17;21;21;
28026;PMS5003;15344;52.342;-1.290;2024-03-06T06:30:43;38;24;
28026;PMS5003;15344;52.342;-1.290;2024-03-06T06:33:08;28;20;
28026;PMS5003;15344;52.342;-1.290;2024-03-06T06:35:33;25;18;
28026;PMS5003;15344;52.342;-1.290;2024-03-06T06:37:59;27;19;
28026;PMS5003;15344;52.342;-1.290;2024-03-06T06:40:24;27;21;
28026;PMS5003;15344;52.342;-1.290;2024-03-06T06:42:49;24;20;
28026;PMS5003;15344;52.342;-1.290;2024-03-06T06:45:15;30;22;
28026;PMS5003;15344;52.342;-1.290;2024-03-06T06:47:40;27;20;
28026;PMS5003;15344;52.342;-1.290;2024-03-06T06:50:06;32;18;
28026;PMS5003;15344;52.342;-1.290;2024-03-06T06:52:31;36;23;
28026;PMS5003;15344;52.342;-1.290;2024-03-06T06:54:57;41;27;
28026;PMS5003;15344;52.342;-1.290;2024-03-06T06:57:22;40;30;
28026;PMS5003;15344;52.342;-1.290;2024-03-06T06:59:48;36;27;
28026;PMS5003;15344;52.342;-1.290;2024-03-06T07:02:13;40;28;
28026;PMS5003;15344;52.342;-1.290;2024-03-06T07:04:39;50;32;
28026;PMS5003;15344;52.342;-1.290;2024-03-06T07:07:05;41;32;
28026;PMS5003;15344;52.342;-1.290;2024-03-06T07:09:30;46;34;
28026;PMS5003;15344;52.342;-1.290;2024-03-06T07:11:55;41;31;
28026;PMS5003;15344;52.342;-1.290;2024-03-06T07:14:21;38;28;
28026;PMS5003;15344;52.342;-1.290;2024-03-06T07:16:46;34;28;
28026;PMS5003;15344;52.342;-1.290;2024-03-06T07:19:11;43;26;
28026;PMS5003;15344;52.342;-1.290;2024-03-06T07:21:37;36;30;
28026;PMS5003;15344;52.342;-1.290;2024-03-06T07:24:03;31;25;
28026;PMS5003;15344;52.342;-1.290;2024-03-06T07:26:29;40;24;
28026;PMS5003;15344;52.342;-1.290;2024-03-06T07:28:54;32;26;
28026;PMS5003;15344;52.342;-1.290;2024-03-06T07:31:19;38;23;
28026;PMS5003;15344;52.342;-1.290;2024-03-06T07:33:45;26;21;
28026;PMS5003;15344;52.342;-1.290;2024-03-06T07:36:10;37;28;
28026;PMS5003;15344;52.342;-1.290;2024-03-06T07:38:35;34;26;
28026;PMS5003;15344;52.342;-1.290;2024-03-06T07:41:00;43;32;
28026;PMS5003;15344;52.342;-1.290;2024-03-06T07:43:25;30;25;
28026;PMS5003;15344;52.342;-1.290;2024-03-06T07:45:50;44;28;
28026;PMS5003;15344;52.342;-1.290;2024-03-06T07:48:16;43;28;
28026;PMS5003;15344;52.342;-1.290;2024-03-06T07:50:42;35;23;
28026;PMS5003;15344;52.342;-1.290;2024-03-06T07:53:07;38;28;
28026;PMS5003;15344;52.342;-1.290;2024-03-06T07:55:32;39;28;
28026;PMS5003;15344;52.342;-1.290;2024-03-06T07:57:57;44;33;
28026;PMS5003;15344;52.342;-1.290;2024-03-06T08:00:23;35;25;
28026;PMS5003;15344;52.342;-1.290;2024-03-06T08:02:48;40;32;
28026;PMS5003;15344;52.342;-1.290;2024-03-06T08:05:13;36;30;
28026;PMS5003;15344;52.342;-1.290;2024-03-06T08:07:39;41;28;
28026;PMS5003;15344;52.342;-1.290;2024-03-06T08:10:04;43;32;
28026;PMS5003;15344;52.342;-1.290;2024-03-06T08:12:30;42;32;
28026;PMS5003;15344;52.342;-1.290;2024-03-06T08:14:56;56;36;
28026;PMS5003;15344;52.342;-1.290;2024-03-06T08:17:21;46;33;
28026;PMS5003;15344;52.342;-1.290;2024-03-06T08:19:47;33;26;
28026;PMS5003;15344;52.342;-1.290;2024-03-06T08:22:12;33;27;
28026;PMS5003;15344;52.342;-1.290;2024-03-06T08:24:38;42;26;
28026;PMS5003;15344;52.342;-1.290;2024-03-06T08:27:03;35;27;
28026;PMS5003;15344;52.342;-1.290;2024-03-06T08:29:29;32;27;
28026;PMS5003;15344;52.342;-1.290;2024-03-06T08:31:54;27;25;
28026;PMS5003;15344;52.342;-1.290;2024-03-06T08:34:19;40;26;
28026;PMS5003;15344;52.342;-1.290;2024-03-06T08:36:45;56;33;
28026;PMS5003;15344;52.342;-1.290;2024-03-06T08:39:10;33;26;
28026;PMS5003;15344;52.342;-1.290;2024-03-06T08:41:36;40;34;
28026;PMS5003;15344;52.342;-1.290;2024-03-06T08:44:01;41;28;
28026;PMS5003;15344;52.342;-1.290;2024-03-06T08:46:27;45;30;
28026;PMS5003;15344;52.342;-1.290;2024-03-06T08:48:52;46;31;
28026;PMS5003;15344;52.342;-1.290;2024-03-06T08:51:17;40;28;
28026;PMS5003;15344;52.342;-1.290;2024-03-06T08:53:43;48;34;
28026;PMS5003;15344;52.342;-1.290;2024-03-06T08:56:09;50;33;
28026;PMS5003;15344;52.342;-1.290;2024-03-06T08:58:34;47;36;
28026;PMS5003;15344;52.342;-1.290;2024-03-06T09:01:00;45;34;
28026;PMS5003;15344;52.342;-1.290;2024-03-06T09:03:25;56;37;
28026;PMS5003;15344;52.342;-1.290;2024-03-06T09:05:51;47;36;
28026;PMS5003;15344;52.342;-1.290;2024-03-06T09:08:16;56;40;
28026;PMS5003;15344;52.342;-1.290;2024-03-06T09:10:42;49;34;
28026;PMS5003;15344;52.342;-1.290;2024-03-06T09:13:08;59;36;
28026;PMS5003;15344;52.342;-1.290;2024-03-06T09:15:33;56;36;
28026;PMS5003;15344;52.342;-1.290;2024-03-06T09:17:59;51;36;
28026;PMS5003;15344;52.342;-1.290;2024-03-06T09:20:24;52;38;
28026;PMS5003;15344;52.342;-1.290;2024-03-06T09:22:50;52;37;
28026;PMS5003;15344;52.342;-1.290;2024-03-06T09:25:15;54;38;
28026;PMS5003;15344;52.342;-1.290;2024-03-06T09:27:41;53;37;
28026;PMS5003;15344;52.342;-1.290;2024-03-06T09:30:07;56;40;
28026;PMS5003;15344;52.342;-1.290;2024-03-06T09:32:32;57;43;
28026;PMS5003;15344;52.342;-1.290;2024-03-06T09:34:58;61;41;
28026;PMS5003;15344;52.342;-1.290;2024-03-06T09:37:23;49;37;
28026;PMS5003;15344;52.342;-1.290;2024-03-06T09:39:49;43;35;
28026;PMS5003;15344;52.342;-1.290;2024-03-06T09:42:14;58;43;
28026;PMS5003;15344;52.342;-1.290;2024-03-06T09:44:39;55;42;
28026;PMS5003;15344;52.342;-1.290;2024-03-06T09:47:05;53;36;
28026;PMS5003;15344;52.342;-1.290;2024-03-06T09:49:30;57;36;
28026;PMS5003;15344;52.342;-1.290;2024-03-06T09:51:55;41;35;
28026;PMS5003;15344;52.342;-1.290;2024-03-06T09:54:21;56;37;
28026;PMS5003;15344;52.342;-1.290;2024-03-06T09:56:46;54;42;
28026;PMS5003;15344;52.342;-1.290;2024-03-06T09:59:12;62;41;
28026;PMS5003;15344;52.342;-1.290;2024-03-06T10:01:39;62;42;
28026;PMS5003;15344;52.342;-1.290;2024-03-06T10:06:28;63;42;
28026;PMS5003;15344;52.342;-1.290;2024-03-06T10:08:53;52;42;
28026;PMS5003;15344;52.342;-1.290;2024-03-06T10:11:18;63;43;
28026;PMS5003;15344;52.342;-1.290;2024-03-06T10:13:44;56;42;
28026;PMS5003;15344;52.342;-1.290;2024-03-06T10:16:10;70;43;
28026;PMS5003;15344;52.342;-1.290;2024-03-06T10:18:35;57;44;
28026;PMS5003;15344;52.342;-1.290;2024-03-06T10:21:01;68;45;
28026;PMS5003;15344;52.342;-1.290;2024-03-06T10:23:27;55;39;
28026;PMS5003;15344;52.342;-1.290;2024-03-06T10:25:52;70;47;
28026;PMS5003;15344;52.342;-1.290;2024-03-06T10:28:18;57;44;
28026;PMS5003;15344;52.342;-1.290;2024-03-06T10:30:43;56;43;
28026;PMS5003;15344;52.342;-1.290;2024-03-06T10:33:08;50;40;
28026;PMS5003;15344;52.342;-1.290;2024-03-06T10:35:33;63;43;
28026;PMS5003;15344;52.342;-1.290;2024-03-06T10:38:00;55;43;
28026;PMS5003;15344;52.342;-1.290;2024-03-06T10:40:24;45;36;
28026;PMS5003;15344;52.342;-1.290;2024-03-06T10:42:49;52;40;
28026;PMS5003;15344;52.342;-1.290;2024-03-06T10:45:15;48;38;
28026;PMS5003;15344;52.342;-1.290;2024-03-06T10:47:40;57;41;
28026;PMS5003;15344;52.342;-1.290;2024-03-06T10:50:06;62;44;
28026;PMS5003;15344;52.342;-1.290;2024-03-06T10:52:32;47;39;
28026;PMS5003;15344;52.342;-1.290;2024-03-06T10:54:58;45;38;
28026;PMS5003;15344;52.342;-1.290;2024-03-06T10:57:23;52;39;
28026;PMS5003;15344;52.342;-1.290;2024-03-06T10:59:49;52;38;
28026;PMS5003;15344;52.342;-1.290;2024-03-06T11:02:14;54;39;
28026;PMS5003;15344;52.342;-1.290;2024-03-06T11:04:39;51;39;
28026;PMS5003;15344;52.342;-1.290;2024-03-06T11:07:04;53;37;
28026;PMS5003;15344;52.342;-1.290;2024-03-06T11:09:32;52;41;
28026;PMS5003;15344;52.342;-1.290;2024-03-06T11:11:55;60;42;
28026;PMS5003;15344;52.342;-1.290;2024-03-06T11:14:21;42;37;
28026;PMS5003;15344;52.342;-1.290;2024-03-06T11:19:11;57;38;
28026;PMS5003;15344;52.342;-1.290;2024-03-06T11:26:28;48;39;
28026;PMS5003;15344;52.342;-1.290;2024-03-06T11:28:53;43;35;
28026;PMS5003;15344;52.342;-1.290;2024-03-06T11:31:19;54;39;
28026;PMS5003;15344;52.342;-1.290;2024-03-06T11:33:45;63;40;
28026;PMS5003;15344;52.342;-1.290;2024-03-06T11:36:12;52;38;
28026;PMS5003;15344;52.342;-1.290;2024-03-06T11:38:37;51;35;
28026;PMS5003;15344;52.342;-1.290;2024-03-06T11:41:01;60;39;
28026;PMS5003;15344;52.342;-1.290;2024-03-06T11:43:27;48;39;
28026;PMS5003;15344;52.342;-1.290;2024-03-06T11:45:52;57;39;
28026;PMS5003;15344;52.342;-1.290;2024-03-06T11:48:18;64;41;
28026;PMS5003;15344;52.342;-1.290;2024-03-06T11:50:44;61;38;
28026;PMS5003;15344;52.342;-1.290;2024-03-06T11:53:09;48;36;
28026;PMS5003;15344;52.342;-1.290;2024-03-06T11:55:34;56;40;
28026;PMS5003;15344;52.342;-1.290;2024-03-06T11:58:00;57;41;
28026;PMS5003;15344;52.342;-1.290;2024-03-06T12:00:25;52;34;
28026;PMS5003;15344;52.342;-1.290;2024-03-06T12:02:51;43;32;
28026;PMS5003;15344;52.342;-1.290;2024-03-06T12:05:16;51;37;
28026;PMS5003;15344;52.342;-1.290;2024-03-06T12:07:45;54;35;
28026;PMS5003;15344;52.342;-1.290;2024-03-06T12:10:06;47;32;
28026;PMS5003;15344;52.342;-1.290;2024-03-06T12:12:32;50;38;
28026;PMS5003;15344;52.342;-1.290;2024-03-06T12:14:57;63;41;
28026;PMS5003;15344;52.342;-1.290;2024-03-06T12:17:23;53;40;
28026;PMS5003;15344;52.342;-1.290;2024-03-06T12:19:48;49;32;
28026;PMS5003;15344;52.342;-1.290;2024-03-06T12:22:14;45;35;
28026;PMS5003;15344;52.342;-1.290;2024-03-06T12:24:39;43;33;
28026;PMS5003;15344;52.342;-1.290;2024-03-06T12:27:06;46;34;
28026;PMS5003;15344;52.342;-1.290;2024-03-06T12:29:31;41;29;
28026;PMS5003;15344;52.342;-1.290;2024-03-06T12:31:56;39;29;
28026;PMS5003;15344;52.342;-1.290;2024-03-06T12:34:22;30;25;
28026;PMS5003;15344;52.342;-1.290;2024-03-06T12:36:47;46;31;
28026;PMS5003;15344;52.342;-1.290;2024-03-06T12:39:14;40;30;
28026;PMS5003;15344;52.342;-1.290;2024-03-06T12:41:39;38;31;
28026;PMS5003;15344;52.342;-1.290;2024-03-06T12:44:04;39;29;
28026;PMS5003;15344;52.342;-1.290;2024-03-06T12:46:30;39;32;
28026;PMS5003;15344;52.342;-1.290;2024-03-06T12:48:55;42;29;
28026;PMS5003;15344;52.342;-1.290;2024-03-06T12:51:21;35;31;
28026;PMS5003;15344;52.342;-1.290;2024-03-06T12:53:47;42;33;
28026;PMS5003;15344;52.342;-1.290;2024-03-06T12:56:12;47;31;
28026;PMS5003;15344;52.342;-1.290;2024-03-06T12:58:38;43;32;
28026;PMS5003;15344;52.342;-1.290;2024-03-06T13:01:03;44;31;
28026;PMS5003;15344;52.342;-1.290;2024-03-06T13:03:29;45;30;
28026;PMS5003;15344;52.342;-1.290;2024-03-06T13:05:55;35;30;
28026;PMS5003;15344;52.342;-1.290;2024-03-06T13:08:20;33;29;
28026;PMS5003;15344;52.342;-1.290;2024-03-06T13:10:45;47;34;
28026;PMS5003;15344;52.342;-1.290;2024-03-06T13:13:11;42;28;
28026;PMS5003;15344;52.342;-1.290;2024-03-06T13:15:36;42;30;
28026;PMS5003;15344;52.342;-1.290;2024-03-06T13:18:02;48;33;
28026;PMS5003;15344;52.342;-1.290;2024-03-06T13:20:28;49;32;
28026;PMS5003;15344;52.342;-1.290;2024-03-06T13:22:53;39;26;
28026;PMS5003;15344;52.342;-1.290;2024-03-06T13:25:19;41;33;
28026;PMS5003;15344;52.342;-1.290;2024-03-06T13:27:44;39;30;
28026;PMS5003;15344;52.342;-1.290;2024-03-06T13:30:09;47;32;
28026;PMS5003;15344;52.342;-1.290;2024-03-06T13:32:35;44;27;
28026;PMS5003;15344;52.342;-1.290;2024-03-06T13:35:00;36;32;
28026;PMS5003;15344;52.342;-1.290;2024-03-06T13:37:26;41;29;
28026;PMS5003;15344;52.342;-1.290;2024-03-06T13:39:51;30;27;
28026;PMS5003;15344;52.342;-1.290;2024-03-06T13:42:17;34;23;
28026;PMS5003;15344;52.342;-1.290;2024-03-06T13:44:42;32;27;
28026;PMS5003;15344;52.342;-1.290;2024-03-06T13:47:08;27;24;
28026;PMS5003;15344;52.342;-1.290;2024-03-06T13:49:35;36;24;
28026;PMS5003;15344;52.342;-1.290;2024-03-06T13:51:58;30;24;
28026;PMS5003;15344;52.342;-1.290;2024-03-06T13:54:24;34;23;
28026;PMS5003;15344;52.342;-1.290;2024-03-06T13:56:49;25;20;
28026;PMS5003;15344;52.342;-1.290;2024-03-06T13:59:19;16;15;
28026;PMS5003;15344;52.342;-1.290;2024-03-06T14:01:40;21;18;
28026;PMS5003;15344;52.342;-1.290;2024-03-06T14:04:06;24;17;
28026;PMS5003;15344;52.342;-1.290;2024-03-06T14:06:31;20;14;
28026;PMS5003;15344;52.342;-1.290;2024-03-06T14:08:57;29;20;
28026;PMS5003;15344;52.342;-1.290;2024-03-06T14:11:22;31;22;
28026;PMS5003;15344;52.342;-1.290;2024-03-06T14:13:48;31;21;
28026;PMS5003;15344;52.342;-1.290;2024-03-06T14:16:13;21;17;
28026;PMS5003;15344;52.342;-1.290;2024-03-06T14:18:39;25;18;
28026;PMS5003;15344;52.342;-1.290;2024-03-06T14:21:05;29;22;
28026;PMS5003;15344;52.342;-1.290;2024-03-06T14:23:30;32;22;
28026;PMS5003;15344;52.342;-1.290;2024-03-06T14:25:55;31;24;
28026;PMS5003;15344;52.342;-1.290;2024-03-06T14:28:21;29;21;
28026;PMS5003;15344;52.342;-1.290;2024-03-06T14:30:46;25;17;
28026;PMS5003;15344;52.342;-1.290;2024-03-06T14:33:12;25;23;
28026;PMS5003;15344;52.342;-1.290;2024-03-06T14:35:37;17;17;
28026;PMS5003;15344;52.342;-1.290;2024-03-06T14:38:02;23;19;
28026;PMS5003;15344;52.342;-1.290;2024-03-06T14:40:28;29;23;
28026;PMS5003;15344;52.342;-1.290;2024-03-06T14:42:53;30;21;
28026;PMS5003;15344;52.342;-1.290;2024-03-06T14:45:19;23;17;
28026;PMS5003;15344;52.342;-1.290;2024-03-06T14:47:45;31;21;
28026;PMS5003;15344;52.342;-1.290;2024-03-06T14:50:11;22;19;
28026;PMS5003;15344;52.342;-1.290;2024-03-06T14:52:36;26;17;
28026;PMS5003;15344;52.342;-1.290;2024-03-06T14:55:01;32;24;
28026;PMS5003;15344;52.342;-1.290;2024-03-06T14:57:27;24;20;
28026;PMS5003;15344;52.342;-1.290;2024-03-06T14:59:52;36;26;
28026;PMS5003;15344;52.342;-1.290;2024-03-06T15:02:17;33;21;
28026;PMS5003;15344;52.342;-1.290;2024-03-06T15:04:43;28;21;
28026;PMS5003;15344;52.342;-1.290;2024-03-06T15:07:08;28;23;
28026;PMS5003;15344;52.342;-1.290;2024-03-06T15:09:33;30;24;
28026;PMS5003;15344;52.342;-1.290;2024-03-06T15:11:59;24;22;
28026;PMS5003;15344;52.342;-1.290;2024-03-06T15:14:25;23;23;
28026;PMS5003;15344;52.342;-1.290;2024-03-06T15:16:50;23;21;
28026;PMS5003;15344;52.342;-1.290;2024-03-06T15:19:15;32;21;
28026;PMS5003;15344;52.342;-1.290;2024-03-06T15:21:41;28;19;
28026;PMS5003;15344;52.342;-1.290;2024-03-06T15:24:07;33;23;
28026;PMS5003;15344;52.342;-1.290;2024-03-06T15:26:31;24;20;
28026;PMS5003;15344;52.342;-1.290;2024-03-06T15:28:57;30;20;
28026;PMS5003;15344;52.342;-1.290;2024-03-06T15:31:23;28;23;
28026;PMS5003;15344;52.342;-1.290;2024-03-06T15:33:47;29;22;
28026;PMS5003;15344;52.342;-1.290;2024-03-06T15:36:13;29;21;
28026;PMS5003;15344;52.342;-1.290;2024-03-06T15:38:38;31;21;
28026;PMS5003;15344;52.342;-1.290;2024-03-06T15:41:03;32;25;
28026;PMS5003;15344;52.342;-1.290;2024-03-06T15:43:28;26;23;
28026;PMS5003;15344;52.342;-1.290;2024-03-06T15:45:54;25;21;
28026;PMS5003;15344;52.342;-1.290;2024-03-06T15:48:19;38;26;
28026;PMS5003;15344;52.342;-1.290;2024-03-06T15:50:44;28;20;
28026;PMS5003;15344;52.342;-1.290;2024-03-06T15:53:09;29;21;
28026;PMS5003;15344;52.342;-1.290;2024-03-06T15:55:35;34;26;
28026;PMS5003;15344;52.342;-1.290;2024-03-06T15:58:01;35;25;
28026;PMS5003;15344;52.342;-1.290;2024-03-06T16:00:27;35;26;